Mesa Verde, California
Current Conditions -  °F | °C
As of 11:52 PM on Tuesday 21 Oct 2014 (Local Time) from KBLH Reporting Station
Clear Clear  
Wind Chill: 74°   Ceiling: Unl
Heat Index: 74°   Visibility: 10mi
Dew Point: 50°   Wind: 0mph
Humidity: 43%   Direction: NA
Pressure: 29.8"   Gusts: NA
Location:  33.5664°N, 114.628°W
Report Text: KBLH 220652Z AUTO 00000KT 10SM CLR 23/10 A2980 RMK AO2 SLP087 T02330100
Loading
Personal Weather Stations






























Interactive Weather Map
Tropical Storm Tracking
New forecast layout! Learn more

10-Day Weather Forecast

Advertisements
Track Severe Weather on mobile